Time;durP1;ratioP1;P1;durP2;ratioP2;P2;SDS_P1;SDS_P2;PMS_P1;PMS_P2;Temp;Humidity;BMP_temperature;BMP_pressure;BME280_temperature;BME280_humidity;BME280_pressure;Samples;Min_cycle;Max_cycle;Signal;HPM_P1;HPM_P2
2023/11/20 00:02:07;;;;;;;17.02;15.23;;;;;;;;;;5079439;28;20020;-57
2023/11/20 00:04:33;;;;;;;17.77;15.93;;;;;;;;;;5079473;28;20031;-57
2023/11/20 00:06:59;;;;;;;18.92;16.95;;;;;;;;;;5076816;28;20032;-57
2023/11/20 00:09:24;;;;;;;18.35;16.52;;;;;;;;;;5079748;28;20035;-61
2023/11/20 00:11:50;;;;;;;18.75;16.50;;;;;;;;;;5079508;28;20024;-61
2023/11/20 00:14:16;;;;;;;18.17;16.38;;;;;;;;;;5079248;28;20107;-62
2023/11/20 00:16:42;;;;;;;19.27;17.48;;;;;;;;;;5077574;28;20029;-59
2023/11/20 00:19:11;;;;;;;19.95;17.80;;;;;;;;;;5078185;28;20024;-59
2023/11/20 00:21:41;;;;;;;18.23;16.42;;;;;;;;;;5079169;28;20028;-57
2023/11/20 00:24:08;;;;;;;17.75;15.95;;;;;;;;;;5079587;28;20104;-59
2023/11/20 00:26:34;;;;;;;16.95;15.25;;;;;;;;;;5079198;28;20067;-58
2023/11/20 00:29:00;;;;;;;18.50;16.67;;;;;;;;;;5079403;28;20424;-60
2023/11/20 00:31:26;;;;;;;17.17;15.48;;;;;;;;;;5078051;28;20039;-59
2023/11/20 00:33:51;;;;;;;17.63;15.82;;;;;;;;;;5075203;28;20028;-54
2023/11/20 00:36:18;;;;;;;17.95;16.15;;;;;;;;;;5057972;28;20123;-59
2023/11/20 00:38:45;;;;;;;19.95;17.88;;;;;;;;;;5056889;28;20031;-57
2023/11/20 00:41:11;;;;;;;17.38;15.68;;;;;;;;;;5056133;28;20438;-62
2023/11/20 00:43:39;;;;;;;16.70;15.00;;;;;;;;;;5057467;28;20054;-62
2023/11/20 00:46:05;;;;;;;17.23;15.43;;;;;;;;;;5057263;28;20025;-58
2023/11/20 00:48:31;;;;;;;19.40;15.68;;;;;;;;;;5057817;28;20436;-59
2023/11/20 00:50:57;;;;;;;20.35;15.75;;;;;;;;;;5058761;28;20036;-59
2023/11/20 00:53:23;;;;;;;17.60;15.75;;;;;;;;;;5059709;28;20393;-56
2023/11/20 00:55:50;;;;;;;18.13;16.33;;;;;;;;;;5059119;28;20025;-59
2023/11/20 00:58:16;;;;;;;18.30;15.90;;;;;;;;;;5059339;28;20101;-60
2023/11/20 01:00:42;;;;;;;16.88;15.07;;;;;;;;;;5057135;28;20053;-59
2023/11/20 01:03:08;;;;;;;18.30;16.40;;;;;;;;;;5058307;28;20053;-56
2023/11/20 01:05:34;;;;;;;19.23;17.20;;;;;;;;;;5058930;28;20071;-59
2023/11/20 01:08:00;;;;;;;18.98;17.17;;;;;;;;;;5059055;28;20076;-59
2023/11/20 01:10:26;;;;;;;19.10;17.30;;;;;;;;;;5058162;28;20025;-57
2023/11/20 01:12:52;;;;;;;18.88;17.08;;;;;;;;;;5058136;28;20100;-55
2023/11/20 01:15:18;;;;;;;19.25;17.45;;;;;;;;;;5057951;28;20043;-59
2023/11/20 01:17:44;;;;;;;23.63;18.77;;;;;;;;;;5058596;28;20024;-54
2023/11/20 01:20:10;;;;;;;19.98;17.73;;;;;;;;;;5058182;28;20081;-57
2023/11/20 01:22:36;;;;;;;20.42;18.45;;;;;;;;;;5058903;28;20025;-59
2023/11/20 01:25:03;;;;;;;19.35;17.42;;;;;;;;;;5058971;28;20044;-58
2023/11/20 01:27:29;;;;;;;19.45;17.65;;;;;;;;;;5058387;28;20088;-56
2023/11/20 01:29:55;;;;;;;20.65;18.75;;;;;;;;;;5058072;28;20084;-58
2023/11/20 01:32:21;;;;;;;20.33;18.45;;;;;;;;;;5058724;28;20021;-60
2023/11/20 01:34:47;;;;;;;20.05;18.25;;;;;;;;;;5058546;28;20529;-54
2023/11/20 01:37:13;;;;;;;21.75;19.80;;;;;;;;;;5059054;28;20025;-59
2023/11/20 01:39:39;;;;;;;21.33;19.33;;;;;;;;;;5058507;28;20067;-59
2023/11/20 01:42:06;;;;;;;21.20;19.30;;;;;;;;;;5057388;28;20029;-59
2023/11/20 01:44:32;;;;;;;21.83;19.60;;;;;;;;;;5058163;28;20439;-58
2023/11/20 01:46:58;;;;;;;21.75;19.75;;;;;;;;;;5057466;28;20025;-57
2023/11/20 01:49:24;;;;;;;21.10;19.08;;;;;;;;;;5056926;28;20086;-58
2023/11/20 01:51:51;;;;;;;21.20;19.30;;;;;;;;;;5058108;28;20036;-55
2023/11/20 01:54:18;;;;;;;21.50;19.38;;;;;;;;;;5057272;28;20025;-59
2023/11/20 01:56:46;;;;;;;21.50;19.60;;;;;;;;;;5059228;28;20025;-60
2023/11/20 01:59:16;;;;;;;22.70;20.80;;;;;;;;;;5058664;28;20045;-56
2023/11/20 02:01:42;;;;;;;21.80;19.90;;;;;;;;;;5058630;28;20025;-55
2023/11/20 02:04:09;;;;;;;21.65;19.75;;;;;;;;;;5058677;28;20028;-59
2023/11/20 02:06:35;;;;;;;22.25;20.35;;;;;;;;;;5058552;28;20033;-60
2023/11/20 02:09:01;;;;;;;22.00;20.10;;;;;;;;;;5058806;28;20047;-60
2023/11/20 02:11:28;;;;;;;25.83;23.73;;;;;;;;;;5062070;28;20558;-59
2023/11/20 02:13:55;;;;;;;22.80;20.80;;;;;;;;;;5063002;28;20439;-56
2023/11/20 02:16:21;;;;;;;22.05;20.15;;;;;;;;;;5062602;28;20020;-57
2023/11/20 02:18:47;;;;;;;22.02;20.13;;;;;;;;;;5061184;28;20051;-58
2023/11/20 02:21:14;;;;;;;22.48;20.58;;;;;;;;;;5060449;28;20028;-56
2023/11/20 02:23:40;;;;;;;22.92;20.95;;;;;;;;;;5061430;28;20105;-57
2023/11/20 02:26:25;;;;;;;23.50;21.50;;;;;;;;;;5061292;28;20485;-57
2023/11/20 02:29:17;;;;;;;23.27;21.27;;;;;;;;;;5060969;28;20032;-57
2023/11/20 02:31:43;;;;;;;23.52;21.52;;;;;;;;;;5058884;28;20033;-57
2023/11/20 02:34:09;;;;;;;23.08;21.08;;;;;;;;;;5060917;28;20080;-57
2023/11/20 02:36:36;;;;;;;23.02;21.02;;;;;;;;;;5060925;28;20021;-58
2023/11/20 02:39:02;;;;;;;23.63;21.63;;;;;;;;;;5060733;28;20056;-60
2023/11/20 02:41:28;;;;;;;23.10;21.10;;;;;;;;;;5060028;28;20025;-59
2023/11/20 02:43:54;;;;;;;23.85;21.85;;;;;;;;;;5060315;28;20051;-58
2023/11/20 02:46:19;;;;;;;22.65;20.75;;;;;;;;;;5059232;28;20052;-55
2023/11/20 02:48:46;;;;;;;22.52;20.63;;;;;;;;;;5060505;28;20028;-55
2023/11/20 02:51:12;;;;;;;23.27;21.27;;;;;;;;;;5060341;28;20095;-54
2023/11/20 02:53:38;;;;;;;22.77;20.88;;;;;;;;;;5060918;28;20029;-57
2023/11/20 02:56:05;;;;;;;23.25;21.25;;;;;;;;;;5061289;28;20047;-55
2023/11/20 02:58:30;;;;;;;23.38;21.38;;;;;;;;;;5060673;28;20027;-59
2023/11/20 03:00:57;;;;;;;23.20;21.20;;;;;;;;;;5060584;28;20017;-55
2023/11/20 03:03:23;;;;;;;23.83;21.83;;;;;;;;;;5060784;28;20020;-56
2023/11/20 03:05:49;;;;;;;22.25;20.35;;;;;;;;;;5058067;28;20029;-58
2023/11/20 03:08:15;;;;;;;23.20;21.20;;;;;;;;;;5059349;28;20099;-55
2023/11/20 03:10:41;;;;;;;22.27;20.38;;;;;;;;;;5059075;28;20013;-53
2023/11/20 03:13:07;;;;;;;23.77;21.77;;;;;;;;;;5058793;28;20025;-55
2023/11/20 03:15:33;;;;;;;23.17;21.17;;;;;;;;;;5058932;28;20060;-55
2023/11/20 03:18:00;;;;;;;24.80;22.70;;;;;;;;;;5058083;28;20538;-55
2023/11/20 03:20:26;;;;;;;24.85;22.75;;;;;;;;;;5058734;28;20637;-56
2023/11/20 03:22:52;;;;;;;23.95;21.95;;;;;;;;;;5056919;28;20152;-58
2023/11/20 03:25:18;;;;;;;23.48;21.48;;;;;;;;;;5058391;28;20423;-56
2023/11/20 03:27:44;;;;;;;23.30;21.30;;;;;;;;;;5058804;28;20021;-53
2023/11/20 03:30:10;;;;;;;22.73;20.73;;;;;;;;;;5058444;28;20060;-56
2023/11/20 03:32:36;;;;;;;22.23;20.33;;;;;;;;;;5058813;28;20506;-53
2023/11/20 03:35:05;;;;;;;22.05;20.15;;;;;;;;;;5058851;28;20021;-56
2023/11/20 03:37:32;;;;;;;22.05;20.15;;;;;;;;;;5058433;28;20047;-56
2023/11/20 03:39:58;;;;;;;21.60;19.70;;;;;;;;;;5057273;28;20029;-54
2023/11/20 03:42:24;;;;;;;22.40;20.50;;;;;;;;;;5058195;28;20088;-54
2023/11/20 03:44:51;;;;;;;22.42;20.52;;;;;;;;;;5058072;28;20020;-58
2023/11/20 03:47:17;;;;;;;21.90;20.00;;;;;;;;;;5057007;28;20430;-57
2023/11/20 03:49:43;;;;;;;22.80;20.85;;;;;;;;;;5054742;28;20029;-57
2023/11/20 03:52:09;;;;;;;22.25;20.35;;;;;;;;;;5055707;28;20504;-56
2023/11/20 03:54:35;;;;;;;21.70;19.80;;;;;;;;;;5055748;28;20102;-54
2023/11/20 03:57:02;;;;;;;20.75;18.85;;;;;;;;;;5056165;28;20541;-57
2023/11/20 03:59:27;;;;;;;21.00;19.10;;;;;;;;;;5056237;28;20033;-57
2023/11/20 04:01:53;;;;;;;20.75;18.85;;;;;;;;;;5056223;28;20025;-55
2023/11/20 04:04:19;;;;;;;19.95;18.15;;;;;;;;;;5076745;28;20050;-54
2023/11/20 04:06:45;;;;;;;19.98;18.17;;;;;;;;;;5076492;28;20092;-56
2023/11/20 04:09:11;;;;;;;19.60;17.80;;;;;;;;;;5077665;28;20116;-56
2023/11/20 04:11:37;;;;;;;19.42;17.63;;;;;;;;;;5076530;28;20033;-57
2023/11/20 04:14:03;;;;;;;18.63;16.83;;;;;;;;;;5078147;28;20032;-55
2023/11/20 04:16:29;;;;;;;17.60;15.90;;;;;;;;;;5076601;28;20029;-54
2023/11/20 04:18:55;;;;;;;16.95;15.25;;;;;;;;;;5074967;28;20037;-56
2023/11/20 04:21:21;;;;;;;17.17;15.48;;;;;;;;;;5075520;28;20097;-57
2023/11/20 04:23:47;;;;;;;17.25;15.55;;;;;;;;;;5076162;28;20458;-58
2023/11/20 04:26:13;;;;;;;16.95;15.25;;;;;;;;;;5076090;28;20025;-56
2023/11/20 04:28:39;;;;;;;16.50;14.80;;;;;;;;;;5074485;28;20508;-57
2023/11/20 04:31:05;;;;;;;16.13;14.43;;;;;;;;;;5075345;28;20029;-56
2023/11/20 04:33:32;;;;;;;15.50;13.80;;;;;;;;;;5077199;28;20025;-60
2023/11/20 04:36:02;;;;;;;15.20;13.25;;;;;;;;;;5077547;28;20079;-58
2023/11/20 04:38:30;;;;;;;15.00;12.93;;;;;;;;;;5076852;28;20390;-61
2023/11/20 04:40:56;;;;;;;15.00;12.73;;;;;;;;;;5077344;28;20033;-59
2023/11/20 04:43:23;;;;;;;14.80;12.32;;;;;;;;;;5076381;28;20021;-58
2023/11/20 04:45:48;;;;;;;14.98;12.70;;;;;;;;;;5077677;28;20024;-60
2023/11/20 04:48:16;;;;;;;14.90;12.60;;;;;;;;;;5077317;28;20021;-57
2023/11/20 04:50:42;;;;;;;14.90;12.45;;;;;;;;;;5077078;28;20105;-58
2023/11/20 04:53:08;;;;;;;14.90;12.45;;;;;;;;;;5077650;28;20025;-60
2023/11/20 04:55:34;;;;;;;14.75;12.10;;;;;;;;;;5076339;28;20029;-59
2023/11/20 04:58:01;;;;;;;14.70;12.00;;;;;;;;;;5077894;28;20044;-60
2023/11/20 05:00:27;;;;;;;14.60;11.68;;;;;;;;;;5078692;28;20035;-59
2023/11/20 05:02:53;;;;;;;14.50;11.32;;;;;;;;;;5078596;28;20013;-60
2023/11/20 05:05:19;;;;;;;14.63;11.68;;;;;;;;;;5078032;28;20031;-61
2023/11/20 05:07:45;;;;;;;14.50;11.43;;;;;;;;;;5077817;28;20108;-59
2023/11/20 05:10:11;;;;;;;14.45;11.25;;;;;;;;;;5077211;28;20024;-62
2023/11/20 05:12:38;;;;;;;14.35;11.10;;;;;;;;;;5077321;28;20033;-60
2023/11/20 05:15:04;;;;;;;14.38;10.90;;;;;;;;;;5077991;28;20024;-58
2023/11/20 05:17:30;;;;;;;14.30;10.88;;;;;;;;;;5077548;28;20114;-62
2023/11/20 05:19:56;;;;;;;14.40;11.18;;;;;;;;;;5076399;28;20098;-62
2023/11/20 05:22:22;;;;;;;14.30;10.80;;;;;;;;;;5077404;28;20066;-58
2023/11/20 05:24:48;;;;;;;14.30;10.85;;;;;;;;;;5076328;28;20047;-61
2023/11/20 05:27:14;;;;;;;14.45;11.18;;;;;;;;;;5077856;28;20094;-62
2023/11/20 05:29:40;;;;;;;14.55;11.40;;;;;;;;;;5077335;28;20032;-61
2023/11/20 05:32:06;;;;;;;14.50;11.13;;;;;;;;;;5075664;28;20037;-59
2023/11/20 05:34:35;;;;;;;14.60;11.50;;;;;;;;;;5077439;28;20036;-62
2023/11/20 05:37:01;;;;;;;15.00;12.55;;;;;;;;;;5077536;28;20052;-60
2023/11/20 05:39:27;;;;;;;14.98;12.70;;;;;;;;;;5077715;28;20044;-59
2023/11/20 05:41:53;;;;;;;15.48;13.77;;;;;;;;;;5076003;28;20070;-61
2023/11/20 05:44:19;;;;;;;16.67;14.98;;;;;;;;;;5077333;28;20463;-61
2023/11/20 05:46:45;;;;;;;16.88;15.18;;;;;;;;;;5075816;28;20021;-57
2023/11/20 05:49:12;;;;;;;17.90;16.10;;;;;;;;;;5076753;28;20054;-61
2023/11/20 05:51:37;;;;;;;18.38;16.58;;;;;;;;;;5075574;28;20081;-61
2023/11/20 05:54:04;;;;;;;18.15;16.35;;;;;;;;;;5074898;28;20032;-62
2023/11/20 05:56:31;;;;;;;18.80;17.00;;;;;;;;;;5075753;28;20131;-60
2023/11/20 05:58:57;;;;;;;18.67;16.88;;;;;;;;;;5073921;28;20104;-62
2023/11/20 06:01:23;;;;;;;18.98;17.17;;;;;;;;;;5073368;28;20020;-63
2023/11/20 06:03:49;;;;;;;18.67;16.88;;;;;;;;;;5075655;28;20031;-61
2023/11/20 06:06:22;;;;;;;18.20;16.40;;;;;;;;;;5074820;28;20029;-61
2023/11/20 06:08:48;;;;;;;17.38;15.60;;;;;;;;;;5073686;28;20032;-62
2023/11/20 06:11:21;;;;;;;16.88;15.18;;;;;;;;;;5073762;28;20077;-62
2023/11/20 06:13:47;;;;;;;16.75;15.05;;;;;;;;;;5073313;28;20028;-62
2023/11/20 06:16:13;;;;;;;17.20;15.50;;;;;;;;;;5074075;28;20025;-63
2023/11/20 06:18:39;;;;;;;17.10;15.40;;;;;;;;;;5074265;28;20021;-63
2023/11/20 06:21:05;;;;;;;17.05;15.35;;;;;;;;;;5074169;28;20604;-62
2023/11/20 06:23:31;;;;;;;16.90;15.20;;;;;;;;;;5074496;28;20054;-62
2023/11/20 06:25:57;;;;;;;16.80;15.10;;;;;;;;;;5073934;28;20670;-62
2023/11/20 06:28:23;;;;;;;16.50;14.80;;;;;;;;;;5075044;28;20051;-63
2023/11/20 06:30:51;;;;;;;16.25;14.55;;;;;;;;;;5073674;28;20024;-63
2023/11/20 06:33:17;;;;;;;16.27;14.57;;;;;;;;;;5074396;28;20020;-62
2023/11/20 06:35:43;;;;;;;16.60;14.90;;;;;;;;;;5073977;28;20036;-63
2023/11/20 06:38:09;;;;;;;16.40;14.70;;;;;;;;;;5075548;28;20171;-63
2023/11/20 06:40:36;;;;;;;16.30;14.60;;;;;;;;;;5075185;28;20064;-63
2023/11/20 06:43:04;;;;;;;16.25;14.55;;;;;;;;;;5074184;28;20428;-61
2023/11/20 06:45:30;;;;;;;16.27;14.57;;;;;;;;;;5072917;28;20691;-63
2023/11/20 06:47:56;;;;;;;24.98;16.85;;;;;;;;;;5074816;28;20032;-63
2023/11/20 06:50:24;;;;;;;15.40;13.60;;;;;;;;;;5074252;28;20025;-61
2023/11/20 06:52:51;;;;;;;21.27;16.80;;;;;;;;;;5074614;28;20024;-63
2023/11/20 06:55:17;;;;;;;16.25;14.38;;;;;;;;;;5075138;28;20036;-63
2023/11/20 06:57:44;;;;;;;15.20;12.93;;;;;;;;;;5077038;28;20036;-63
2023/11/20 07:00:14;;;;;;;19.00;14.00;;;;;;;;;;5075640;28;20062;-62
2023/11/20 07:02:42;;;;;;;19.75;14.88;;;;;;;;;;5078150;28;20067;-62
2023/11/20 07:05:08;;;;;;;18.08;14.35;;;;;;;;;;5076903;28;20499;-59
2023/11/20 07:07:50;;;;;;;16.08;12.88;;;;;;;;;;5078437;28;20123;-64
2023/11/20 07:10:16;;;;;;;14.55;10.95;;;;;;;;;;5077729;28;20021;-62
2023/11/20 07:12:42;;;;;;;17.50;10.73;;;;;;;;;;5078560;28;20060;-61
2023/11/20 07:15:08;;;;;;;13.60;8.77;;;;;;;;;;5075865;28;20039;-62
2023/11/20 07:17:35;;;;;;;15.57;10.02;;;;;;;;;;5078167;28;20035;-62
2023/11/20 07:20:02;;;;;;;15.18;9.57;;;;;;;;;;5078184;28;20443;-58
2023/11/20 07:22:28;;;;;;;15.65;10.35;;;;;;;;;;5078513;28;20130;-63
2023/11/20 07:24:54;;;;;;;17.88;9.23;;;;;;;;;;5076896;28;20025;-63
2023/11/20 07:27:20;;;;;;;17.08;9.32;;;;;;;;;;5078393;28;20426;-63
2023/11/20 07:29:46;;;;;;;16.35;9.30;;;;;;;;;;5078687;28;20088;-63
2023/11/20 07:32:13;;;;;;;13.57;7.60;;;;;;;;;;5078732;28;20029;-59
2023/11/20 07:34:39;;;;;;;19.55;7.65;;;;;;;;;;5077384;28;20458;-62
2023/11/20 07:37:05;;;;;;;23.25;8.77;;;;;;;;;;5079177;28;20024;-63
2023/11/20 07:39:31;;;;;;;12.05;6.70;;;;;;;;;;5076677;28;20042;-59
2023/11/20 07:41:57;;;;;;;15.07;8.15;;;;;;;;;;5075959;28;20119;-61
2023/11/20 07:44:24;;;;;;;13.63;7.03;;;;;;;;;;5077833;28;20467;-62
2023/11/20 07:46:50;;;;;;;11.10;6.50;;;;;;;;;;5077769;28;20051;-63
2023/11/20 07:49:16;;;;;;;10.98;6.28;;;;;;;;;;5077565;28;20025;-62
2023/11/20 07:51:42;;;;;;;13.50;7.15;;;;;;;;;;5077607;28;20020;-63
2023/11/20 07:54:08;;;;;;;26.00;9.07;;;;;;;;;;5078095;28;20024;-64
2023/11/20 07:56:34;;;;;;;10.95;6.15;;;;;;;;;;5068511;28;20032;-63
2023/11/20 07:59:00;;;;;;;10.98;6.07;;;;;;;;;;5076026;28;20032;-63
2023/11/20 08:01:27;;;;;;;15.30;5.70;;;;;;;;;;5062260;28;20029;-63
2023/11/20 08:03:53;;;;;;;13.07;6.60;;;;;;;;;;5057607;28;20107;-61
2023/11/20 08:06:19;;;;;;;10.05;6.13;;;;;;;;;;5077932;28;20032;-62
2023/11/20 08:08:45;;;;;;;11.20;6.15;;;;;;;;;;5076601;28;20100;-63
2023/11/20 08:11:12;;;;;;;19.17;7.50;;;;;;;;;;5076573;28;20100;-62
2023/11/20 08:13:38;;;;;;;9.23;5.50;;;;;;;;;;5067383;28;20487;-62
2023/11/20 08:16:04;;;;;;;11.82;6.40;;;;;;;;;;5055078;28;20025;-61
2023/11/20 08:18:32;;;;;;;9.38;5.38;;;;;;;;;;5057275;28;20017;-61
2023/11/20 08:20:58;;;;;;;12.45;7.57;;;;;;;;;;5056994;28;20051;-59
2023/11/20 08:23:25;;;;;;;10.85;5.80;;;;;;;;;;5058510;28;20396;-62
2023/11/20 08:25:51;;;;;;;15.35;7.95;;;;;;;;;;5052817;28;20051;-57
2023/11/20 08:28:17;;;;;;;9.60;5.72;;;;;;;;;;5050984;28;20090;-59
2023/11/20 08:30:43;;;;;;;9.65;5.38;;;;;;;;;;5060027;28;20025;-53
2023/11/20 08:33:09;;;;;;;11.38;6.68;;;;;;;;;;5070172;28;20544;-56
2023/11/20 08:35:36;;;;;;;16.38;6.07;;;;;;;;;;5070002;28;20039;-54
2023/11/20 08:38:02;;;;;;;23.88;6.97;;;;;;;;;;5069042;28;20108;-49
2023/11/20 08:40:28;;;;;;;10.60;6.30;;;;;;;;;;5068461;28;20057;-51
2023/11/20 08:42:54;;;;;;;12.27;7.05;;;;;;;;;;5070466;28;20021;-54
2023/11/20 08:45:21;;;;;;;10.40;6.30;;;;;;;;;;5070135;28;20099;-54
2023/11/20 08:47:47;;;;;;;9.60;5.70;;;;;;;;;;5070223;28;20016;-52
2023/11/20 08:50:14;;;;;;;11.18;6.55;;;;;;;;;;5069504;28;20025;-51
2023/11/20 08:52:40;;;;;;;11.43;6.80;;;;;;;;;;5069987;28;20064;-54
2023/11/20 08:55:07;;;;;;;18.05;8.70;;;;;;;;;;5070115;28;20508;-53
2023/11/20 08:57:35;;;;;;;12.00;6.82;;;;;;;;;;5069822;28;20103;-53
2023/11/20 09:00:02;;;;;;;12.23;7.22;;;;;;;;;;5068971;28;20070;-54
2023/11/20 09:02:28;;;;;;;12.75;7.82;;;;;;;;;;5069770;28;20516;-55
2023/11/20 09:04:54;;;;;;;11.52;6.55;;;;;;;;;;5068986;28;20024;-51
2023/11/20 09:07:20;;;;;;;10.48;6.00;;;;;;;;;;5069947;28;20029;-49
2023/11/20 09:09:46;;;;;;;15.07;8.73;;;;;;;;;;5069483;28;20520;-49
2023/11/20 09:12:12;;;;;;;9.73;5.68;;;;;;;;;;5070041;28;20020;-61
2023/11/20 09:14:38;;;;;;;16.08;7.22;;;;;;;;;;5070032;28;20036;-54
2023/11/20 09:17:04;;;;;;;16.00;8.57;;;;;;;;;;5069344;28;20394;-56
2023/11/20 09:19:30;;;;;;;14.48;7.15;;;;;;;;;;5068956;28;20021;-58
2023/11/20 09:21:57;;;;;;;11.65;6.88;;;;;;;;;;5067808;28;20020;-56
2023/11/20 09:24:23;;;;;;;12.35;7.30;;;;;;;;;;5069740;28;20032;-56
2023/11/20 09:26:49;;;;;;;11.43;5.65;;;;;;;;;;5070305;28;20036;-58
2023/11/20 09:29:15;;;;;;;12.93;7.03;;;;;;;;;;5069806;28;20024;-54
2023/11/20 09:31:42;;;;;;;24.15;6.90;;;;;;;;;;5062850;28;20021;-56
2023/11/20 09:34:08;;;;;;;14.80;7.88;;;;;;;;;;5049462;28;20052;-52
2023/11/20 09:36:34;;;;;;;10.20;5.75;;;;;;;;;;5049243;28;20021;-56
2023/11/20 09:39:00;;;;;;;13.75;7.57;;;;;;;;;;5048309;28;20079;-53
2023/11/20 09:41:27;;;;;;;12.40;6.50;;;;;;;;;;5048513;28;20487;-51
2023/11/20 09:43:53;;;;;;;12.25;6.22;;;;;;;;;;5050513;28;20131;-56
2023/11/20 09:46:20;;;;;;;17.08;7.85;;;;;;;;;;5048772;28;20021;-54
2023/11/20 09:48:48;;;;;;;15.45;5.97;;;;;;;;;;5049150;28;20029;-54
2023/11/20 09:51:18;;;;;;;11.45;6.18;;;;;;;;;;5048430;28;20873;-52
2023/11/20 09:53:46;;;;;;;11.57;7.22;;;;;;;;;;5049432;28;20407;-56
2023/11/20 09:56:13;;;;;;;13.10;7.65;;;;;;;;;;5049148;28;20021;-50
2023/11/20 09:58:40;;;;;;;17.13;8.13;;;;;;;;;;5062319;28;20506;-59
2023/11/20 10:01:07;;;;;;;12.52;7.38;;;;;;;;;;5068513;28;20429;-56
2023/11/20 10:03:37;;;;;;;13.40;7.82;;;;;;;;;;5067394;28;20020;-55
2023/11/20 10:06:05;;;;;;;18.80;7.65;;;;;;;;;;5067706;28;20032;-56
2023/11/20 10:08:34;;;;;;;10.98;6.32;;;;;;;;;;5069493;28;20086;-52
2023/11/20 10:11:01;;;;;;;17.73;7.13;;;;;;;;;;5068538;28;20036;-55
2023/11/20 10:13:27;;;;;;;10.93;7.03;;;;;;;;;;5069424;28;20030;-54
2023/11/20 10:15:54;;;;;;;10.93;6.10;;;;;;;;;;5069416;28;20024;-56
2023/11/20 10:18:20;;;;;;;11.38;5.97;;;;;;;;;;5069902;28;20021;-56
2023/11/20 10:20:50;;;;;;;17.00;6.60;;;;;;;;;;5068967;28;20344;-55
2023/11/20 10:23:17;;;;;;;9.20;5.40;;;;;;;;;;5069474;28;20016;-56
2023/11/20 10:25:45;;;;;;;10.52;6.20;;;;;;;;;;5068761;28;20028;-56
2023/11/20 10:28:12;;;;;;;15.93;9.23;;;;;;;;;;5068926;28;20017;-56
2023/11/20 10:30:38;;;;;;;15.05;6.78;;;;;;;;;;5068540;28;20029;-57
2023/11/20 10:33:04;;;;;;;9.75;5.72;;;;;;;;;;5072644;28;20048;-56
2023/11/20 10:35:32;;;;;;;11.95;6.45;;;;;;;;;;5074724;28;20486;-56
2023/11/20 10:37:59;;;;;;;26.07;9.93;;;;;;;;;;5074774;28;20037;-57
2023/11/20 10:40:28;;;;;;;11.15;6.50;;;;;;;;;;5071939;28;20122;-56
2023/11/20 10:42:55;;;;;;;10.77;6.30;;;;;;;;;;5071397;28;20021;-58
2023/11/20 10:45:23;;;;;;;15.07;7.75;;;;;;;;;;5072366;28;20108;-53
2023/11/20 10:47:49;;;;;;;14.10;7.93;;;;;;;;;;5072569;28;20465;-59
2023/11/20 10:50:17;;;;;;;10.82;6.35;;;;;;;;;;5072647;28;20759;-57
2023/11/20 10:52:44;;;;;;;13.43;7.43;;;;;;;;;;5072533;28;20533;-58
2023/11/20 10:55:14;;;;;;;12.25;7.25;;;;;;;;;;5072791;28;20016;-53
2023/11/20 10:57:40;;;;;;;12.68;7.40;;;;;;;;;;5071924;28;20043;-53
2023/11/20 11:00:11;;;;;;;15.32;8.27;;;;;;;;;;5071630;28;20398;-51
2023/11/20 11:02:38;;;;;;;11.38;6.70;;;;;;;;;;5072498;28;20116;-59
2023/11/20 11:05:08;;;;;;;19.27;8.38;;;;;;;;;;5072363;28;20478;-54
2023/11/20 11:07:35;;;;;;;12.77;8.57;;;;;;;;;;5071969;28;20024;-53
2023/11/20 11:10:07;;;;;;;13.27;7.82;;;;;;;;;;5071746;28;20319;-55
2023/11/20 11:12:35;;;;;;;11.93;6.97;;;;;;;;;;5072399;28;20056;-53
2023/11/20 11:15:03;;;;;;;13.27;7.57;;;;;;;;;;5071135;28;20474;-53
2023/11/20 11:17:32;;;;;;;15.50;7.43;;;;;;;;;;5072017;28;20103;-55
2023/11/20 11:20:02;;;;;;;11.73;6.70;;;;;;;;;;5070892;28;20116;-53
2023/11/20 11:22:33;;;;;;;12.00;7.00;;;;;;;;;;5071900;28;20028;-52
2023/11/20 11:25:02;;;;;;;15.20;9.15;;;;;;;;;;5070682;28;20039;-53
2023/11/20 11:27:35;;;;;;;16.40;8.13;;;;;;;;;;5071457;28;20047;-53
2023/11/20 11:30:07;;;;;;;11.90;7.00;;;;;;;;;;5071136;28;20078;-53
2023/11/20 11:32:36;;;;;;;25.05;8.93;;;;;;;;;;5070495;28;20078;-56
2023/11/20 11:35:10;;;;;;;17.10;9.07;;;;;;;;;;5070173;28;20108;-58
2023/11/20 11:37:43;;;;;;;12.75;7.38;;;;;;;;;;5071528;28;20021;-57
2023/11/20 11:40:18;;;;;;;13.73;8.23;;;;;;;;;;5070733;28;20028;-53
2023/11/20 11:42:47;;;;;;;14.13;7.20;;;;;;;;;;5070567;28;20104;-57
2023/11/20 11:45:16;;;;;;;12.52;7.30;;;;;;;;;;5070417;28;20032;-54
2023/11/20 11:47:43;;;;;;;;;;;;;;;;;;5071564;28;20099;-58
2023/11/20 11:50:09;;;;;;;12.88;7.40;;;;;;;;;;5069073;28;19916;-56
2023/11/20 11:52:36;;;;;;;14.02;7.80;;;;;;;;;;5071304;28;20024;-56
2023/11/20 11:55:11;;;;;;;14.32;8.13;;;;;;;;;;5071740;28;20032;-57
2023/11/20 11:57:39;;;;;;;13.48;7.82;;;;;;;;;;5069917;28;20078;-56
2023/11/20 12:00:16;;;;;;;13.32;8.02;;;;;;;;;;5070276;28;20134;-55
2023/11/20 12:02:51;;;;;;;52.20;11.52;;;;;;;;;;5071206;28;20080;-53
2023/11/20 12:05:17;;;;;;;13.32;8.05;;;;;;;;;;5071294;28;20051;-58
2023/11/20 12:07:45;;;;;;;14.23;8.35;;;;;;;;;;5071124;28;20028;-51
2023/11/20 12:10:11;;;;;;;13.68;8.20;;;;;;;;;;5070387;28;20024;-50
2023/11/20 12:12:55;;;;;;;13.93;8.02;;;;;;;;;;5071833;28;20032;-53
2023/11/20 12:15:30;;;;;;;18.80;8.18;;;;;;;;;;5070935;28;20024;-54
2023/11/20 12:18:00;;;;;;;13.48;8.07;;;;;;;;;;5071012;28;20052;-52
2023/11/20 12:20:26;;;;;;;14.20;8.32;;;;;;;;;;5069851;28;20070;-56
2023/11/20 12:22:52;;;;;;;13.65;8.10;;;;;;;;;;5069839;28;20094;-54
2023/11/20 12:25:20;;;;;;;14.18;8.40;;;;;;;;;;5069514;28;20025;-56
2023/11/20 12:27:46;;;;;;;18.20;7.85;;;;;;;;;;5068912;28;20020;-52
2023/11/20 12:30:12;;;;;;;12.93;7.65;;;;;;;;;;5070155;28;20433;-54
2023/11/20 12:32:38;;;;;;;12.80;7.50;;;;;;;;;;5072661;28;20028;-55
2023/11/20 12:35:05;;;;;;;13.40;8.05;;;;;;;;;;5073564;28;20478;-54
2023/11/20 12:37:32;;;;;;;12.93;7.70;;;;;;;;;;5070635;28;20434;-55
2023/11/20 12:39:59;;;;;;;13.30;8.07;;;;;;;;;;5069821;28;20108;-54
2023/11/20 12:42:28;;;;;;;13.20;7.60;;;;;;;;;;5070350;28;20078;-56
2023/11/20 12:44:54;;;;;;;13.10;7.70;;;;;;;;;;5070814;28;20596;-54
2023/11/20 12:47:21;;;;;;;27.05;8.82;;;;;;;;;;5070488;28;20110;-56
2023/11/20 12:49:47;;;;;;;13.80;8.00;;;;;;;;;;5069721;28;20043;-56
2023/11/20 12:52:14;;;;;;;16.60;8.10;;;;;;;;;;5068507;28;20111;-53
2023/11/20 12:54:41;;;;;;;19.52;8.43;;;;;;;;;;5069974;28;20033;-56
2023/11/20 12:57:08;;;;;;;14.95;8.13;;;;;;;;;;5070269;28;20024;-53
2023/11/20 12:59:35;;;;;;;13.52;8.27;;;;;;;;;;5069978;28;20038;-57
2023/11/20 13:02:07;;;;;;;13.10;7.70;;;;;;;;;;5069118;28;20028;-56
2023/11/20 13:04:36;;;;;;;13.15;7.80;;;;;;;;;;5070101;28;20028;-56
2023/11/20 13:07:03;;;;;;;14.27;8.20;;;;;;;;;;5069979;28;20055;-56
2023/11/20 13:09:31;;;;;;;17.20;8.85;;;;;;;;;;5068252;28;20036;-56
2023/11/20 13:11:57;;;;;;;13.27;7.95;;;;;;;;;;5069315;28;20028;-57
2023/11/20 13:14:23;;;;;;;23.50;9.82;;;;;;;;;;5069509;28;20113;-56
2023/11/20 13:16:49;;;;;;;13.85;8.05;;;;;;;;;;5069829;28;20486;-55
2023/11/20 13:19:34;;;;;;;13.80;8.18;;;;;;;;;;5069708;28;20025;-54
2023/11/20 13:22:03;;;;;;;13.23;7.80;;;;;;;;;;5069430;28;20031;-57
2023/11/20 13:24:29;;;;;;;15.60;8.57;;;;;;;;;;5068629;28;20024;-61
2023/11/20 13:26:55;;;;;;;13.88;8.88;;;;;;;;;;5069412;28;20049;-56
2023/11/20 13:29:21;;;;;;;13.43;8.10;;;;;;;;;;5069504;28;20145;-55
2023/11/20 13:31:47;;;;;;;13.25;7.90;;;;;;;;;;5069042;28;20047;-56
2023/11/20 13:34:14;;;;;;;15.07;8.68;;;;;;;;;;5069718;28;20025;-56
2023/11/20 13:36:40;;;;;;;13.57;8.45;;;;;;;;;;5067885;28;20462;-57
2023/11/20 13:39:13;;;;;;;13.48;8.20;;;;;;;;;;5069248;28;20482;-53
2023/11/20 13:41:39;;;;;;;15.45;8.55;;;;;;;;;;5069053;28;20442;-56
2023/11/20 13:44:06;;;;;;;13.25;7.82;;;;;;;;;;5068113;28;20021;-54
2023/11/20 13:46:36;;;;;;;13.10;7.80;;;;;;;;;;5068294;28;20020;-51
2023/11/20 13:49:02;;;;;;;14.18;8.43;;;;;;;;;;5069401;28;20029;-53
2023/11/20 13:51:28;;;;;;;13.20;7.75;;;;;;;;;;5068588;28;20036;-57
2023/11/20 13:53:54;;;;;;;14.50;7.90;;;;;;;;;;5069221;28;20040;-54
2023/11/20 13:56:20;;;;;;;12.95;7.70;;;;;;;;;;5068496;28;20126;-56
2023/11/20 13:58:46;;;;;;;12.88;7.50;;;;;;;;;;5068640;28;20127;-55
2023/11/20 14:01:13;;;;;;;13.25;7.80;;;;;;;;;;5068551;28;20107;-56
2023/11/20 14:03:40;;;;;;;13.30;8.10;;;;;;;;;;5068978;28;20024;-52
2023/11/20 14:06:06;;;;;;;13.48;8.10;;;;;;;;;;5068857;28;20067;-57
2023/11/20 14:08:33;;;;;;;13.38;8.00;;;;;;;;;;5071613;28;20051;-57
2023/11/20 14:10:59;;;;;;;13.57;8.60;;;;;;;;;;5072330;28;20020;-56
2023/11/20 14:13:26;;;;;;;13.50;8.32;;;;;;;;;;5072684;28;20025;-55
2023/11/20 14:15:52;;;;;;;13.50;8.40;;;;;;;;;;5072722;28;20426;-55
2023/11/20 14:18:19;;;;;;;13.90;8.90;;;;;;;;;;5072591;28;20067;-55
2023/11/20 14:20:46;;;;;;;14.10;8.80;;;;;;;;;;5070565;28;20020;-56
2023/11/20 14:23:12;;;;;;;13.57;8.40;;;;;;;;;;5071727;28;20016;-58